sensor_id;sensor_type;location;lat;lon;timestamp;P1;durP1;ratioP1;P2;durP2;ratioP2
25503;SDS011;13410;52.114;5.718;2023-07-20T00:00:38;12.40;;;8.98;;
25503;SDS011;13410;52.114;5.718;2023-07-20T00:03:11;10.45;;;7.82;;
25503;SDS011;13410;52.114;5.718;2023-07-20T00:05:41;11.95;;;7.35;;
25503;SDS011;13410;52.114;5.718;2023-07-20T00:08:10;10.63;;;7.57;;
25503;SDS011;13410;52.114;5.718;2023-07-20T00:10:35;8.70;;;6.70;;
25503;SDS011;13410;52.114;5.718;2023-07-20T00:13:01;9.73;;;7.55;;
25503;SDS011;13410;52.114;5.718;2023-07-20T00:15:26;10.00;;;7.22;;
25503;SDS011;13410;52.114;5.718;2023-07-20T00:17:52;11.20;;;7.65;;
25503;SDS011;13410;52.114;5.718;2023-07-20T00:20:17;10.20;;;6.88;;
25503;SDS011;13410;52.114;5.718;2023-07-20T00:22:43;8.70;;;7.70;;
25503;SDS011;13410;52.114;5.718;2023-07-20T00:25:09;8.68;;;7.38;;
25503;SDS011;13410;52.114;5.718;2023-07-20T00:27:36;7.38;;;6.32;;
25503;SDS011;13410;52.114;5.718;2023-07-20T00:30:03;7.38;;;5.85;;
25503;SDS011;13410;52.114;5.718;2023-07-20T00:32:29;5.60;;;4.85;;
25503;SDS011;13410;52.114;5.718;2023-07-20T00:34:54;8.98;;;7.18;;
25503;SDS011;13410;52.114;5.718;2023-07-20T00:37:20;7.85;;;4.65;;
25503;SDS011;13410;52.114;5.718;2023-07-20T00:39:46;8.13;;;5.50;;
25503;SDS011;13410;52.114;5.718;2023-07-20T00:42:11;6.95;;;4.78;;
25503;SDS011;13410;52.114;5.718;2023-07-20T00:44:37;9.18;;;6.15;;
25503;SDS011;13410;52.114;5.718;2023-07-20T00:47:02;5.90;;;4.88;;
25503;SDS011;13410;52.114;5.718;2023-07-20T00:49:29;5.82;;;4.70;;
25503;SDS011;13410;52.114;5.718;2023-07-20T00:51:54;8.35;;;5.15;;
25503;SDS011;13410;52.114;5.718;2023-07-20T00:54:20;9.20;;;5.78;;
25503;SDS011;13410;52.114;5.718;2023-07-20T00:56:46;6.55;;;5.65;;
25503;SDS011;13410;52.114;5.718;2023-07-20T00:59:12;6.95;;;5.30;;
25503;SDS011;13410;52.114;5.718;2023-07-20T01:01:38;6.22;;;5.63;;
25503;SDS011;13410;52.114;5.718;2023-07-20T01:04:04;8.65;;;5.30;;
25503;SDS011;13410;52.114;5.718;2023-07-20T01:09:12;6.38;;;5.22;;
25503;SDS011;13410;52.114;5.718;2023-07-20T01:11:43;5.60;;;5.10;;
25503;SDS011;13410;52.114;5.718;2023-07-20T01:14:25;6.60;;;4.93;;
25503;SDS011;13410;52.114;5.718;2023-07-20T01:16:51;5.60;;;4.78;;
25503;SDS011;13410;52.114;5.718;2023-07-20T01:19:19;4.00;;;3.60;;
25503;SDS011;13410;52.114;5.718;2023-07-20T01:24:56;4.68;;;4.18;;
25503;SDS011;13410;52.114;5.718;2023-07-20T01:27:46;3.55;;;3.00;;
25503;SDS011;13410;52.114;5.718;2023-07-20T01:33:00;4.47;;;3.58;;
25503;SDS011;13410;52.114;5.718;2023-07-20T01:35:28;4.28;;;3.20;;
25503;SDS011;13410;52.114;5.718;2023-07-20T01:37:55;4.05;;;3.28;;
25503;SDS011;13410;52.114;5.718;2023-07-20T01:40:23;3.55;;;3.20;;
25503;SDS011;13410;52.114;5.718;2023-07-20T01:42:51;3.63;;;3.30;;
25503;SDS011;13410;52.114;5.718;2023-07-20T01:45:18;3.95;;;3.13;;
25503;SDS011;13410;52.114;5.718;2023-07-20T01:47:44;3.33;;;2.97;;
25503;SDS011;13410;52.114;5.718;2023-07-20T01:50:09;3.28;;;2.88;;
25503;SDS011;13410;52.114;5.718;2023-07-20T01:52:35;4.25;;;3.30;;
25503;SDS011;13410;52.114;5.718;2023-07-20T01:55:01;3.55;;;3.08;;
25503;SDS011;13410;52.114;5.718;2023-07-20T01:57:27;3.22;;;2.90;;
25503;SDS011;13410;52.114;5.718;2023-07-20T01:59:52;4.28;;;3.00;;
25503;SDS011;13410;52.114;5.718;2023-07-20T02:02:18;2.95;;;2.75;;
25503;SDS011;13410;52.114;5.718;2023-07-20T02:04:45;4.38;;;2.85;;
25503;SDS011;13410;52.114;5.718;2023-07-20T02:07:11;3.03;;;2.72;;
25503;SDS011;13410;52.114;5.718;2023-07-20T02:09:36;2.80;;;2.50;;
25503;SDS011;13410;52.114;5.718;2023-07-20T02:12:02;3.72;;;3.03;;
25503;SDS011;13410;52.114;5.718;2023-07-20T02:14:28;4.43;;;2.78;;
25503;SDS011;13410;52.114;5.718;2023-07-20T02:16:53;4.00;;;3.08;;
25503;SDS011;13410;52.114;5.718;2023-07-20T02:19:22;3.72;;;2.80;;
25503;SDS011;13410;52.114;5.718;2023-07-20T02:21:49;3.28;;;2.97;;
25503;SDS011;13410;52.114;5.718;2023-07-20T02:24:15;3.67;;;2.85;;
25503;SDS011;13410;52.114;5.718;2023-07-20T02:26:41;3.75;;;2.55;;
25503;SDS011;13410;52.114;5.718;2023-07-20T02:29:07;3.00;;;2.70;;
25503;SDS011;13410;52.114;5.718;2023-07-20T02:31:33;3.67;;;3.03;;
25503;SDS011;13410;52.114;5.718;2023-07-20T02:33:58;3.35;;;3.05;;
25503;SDS011;13410;52.114;5.718;2023-07-20T02:36:24;3.47;;;3.17;;
25503;SDS011;13410;52.114;5.718;2023-07-20T02:38:49;4.13;;;3.35;;
25503;SDS011;13410;52.114;5.718;2023-07-20T02:41:15;4.20;;;2.90;;
25503;SDS011;13410;52.114;5.718;2023-07-20T02:43:41;3.38;;;2.80;;
25503;SDS011;13410;52.114;5.718;2023-07-20T02:46:06;6.25;;;3.28;;
25503;SDS011;13410;52.114;5.718;2023-07-20T02:48:32;5.07;;;3.63;;
25503;SDS011;13410;52.114;5.718;2023-07-20T02:50:57;5.00;;;3.35;;
25503;SDS011;13410;52.114;5.718;2023-07-20T02:53:23;5.25;;;3.20;;
25503;SDS011;13410;52.114;5.718;2023-07-20T02:55:48;6.45;;;3.85;;
25503;SDS011;13410;52.114;5.718;2023-07-20T02:58:14;6.43;;;3.97;;
25503;SDS011;13410;52.114;5.718;2023-07-20T03:00:39;7.15;;;4.15;;
25503;SDS011;13410;52.114;5.718;2023-07-20T03:03:08;4.60;;;3.25;;
25503;SDS011;13410;52.114;5.718;2023-07-20T03:05:34;6.25;;;3.83;;
25503;SDS011;13410;52.114;5.718;2023-07-20T03:08:00;3.83;;;3.08;;
25503;SDS011;13410;52.114;5.718;2023-07-20T03:10:28;4.22;;;3.30;;
25503;SDS011;13410;52.114;5.718;2023-07-20T03:12:54;3.40;;;2.90;;
25503;SDS011;13410;52.114;5.718;2023-07-20T03:15:19;5.43;;;3.28;;
25503;SDS011;13410;52.114;5.718;2023-07-20T03:17:45;6.10;;;3.75;;
25503;SDS011;13410;52.114;5.718;2023-07-20T03:20:10;4.40;;;2.80;;
25503;SDS011;13410;52.114;5.718;2023-07-20T03:22:37;3.38;;;2.80;;
25503;SDS011;13410;52.114;5.718;2023-07-20T03:25:03;6.22;;;3.10;;
25503;SDS011;13410;52.114;5.718;2023-07-20T03:27:29;3.47;;;3.03;;
25503;SDS011;13410;52.114;5.718;2023-07-20T03:29:55;5.63;;;3.10;;
25503;SDS011;13410;52.114;5.718;2023-07-20T03:32:20;3.60;;;2.95;;
25503;SDS011;13410;52.114;5.718;2023-07-20T03:34:46;6.68;;;3.42;;
25503;SDS011;13410;52.114;5.718;2023-07-20T03:37:12;4.30;;;3.30;;
25503;SDS011;13410;52.114;5.718;2023-07-20T03:39:38;3.70;;;3.40;;
25503;SDS011;13410;52.114;5.718;2023-07-20T03:42:04;4.38;;;3.45;;
25503;SDS011;13410;52.114;5.718;2023-07-20T03:44:30;3.95;;;3.58;;
25503;SDS011;13410;52.114;5.718;2023-07-20T03:46:55;3.88;;;3.35;;
25503;SDS011;13410;52.114;5.718;2023-07-20T03:49:21;7.18;;;3.25;;
25503;SDS011;13410;52.114;5.718;2023-07-20T03:51:46;4.25;;;3.30;;
25503;SDS011;13410;52.114;5.718;2023-07-20T03:54:12;5.40;;;3.53;;
25503;SDS011;13410;52.114;5.718;2023-07-20T03:56:37;4.70;;;3.58;;
25503;SDS011;13410;52.114;5.718;2023-07-20T03:59:03;4.47;;;3.45;;
25503;SDS011;13410;52.114;5.718;2023-07-20T04:01:29;3.75;;;3.45;;
25503;SDS011;13410;52.114;5.718;2023-07-20T04:03:55;3.78;;;3.42;;
25503;SDS011;13410;52.114;5.718;2023-07-20T04:06:21;4.15;;;3.30;;
25503;SDS011;13410;52.114;5.718;2023-07-20T04:08:47;4.35;;;3.60;;
25503;SDS011;13410;52.114;5.718;2023-07-20T04:11:12;4.13;;;3.65;;
25503;SDS011;13410;52.114;5.718;2023-07-20T04:13:38;6.60;;;3.10;;
25503;SDS011;13410;52.114;5.718;2023-07-20T04:16:04;5.05;;;3.45;;
25503;SDS011;13410;52.114;5.718;2023-07-20T04:18:32;3.88;;;3.20;;
25503;SDS011;13410;52.114;5.718;2023-07-20T04:20:57;4.65;;;3.00;;
25503;SDS011;13410;52.114;5.718;2023-07-20T04:23:23;4.65;;;2.97;;
25503;SDS011;13410;52.114;5.718;2023-07-20T04:25:49;2.95;;;2.65;;
25503;SDS011;13410;52.114;5.718;2023-07-20T04:28:15;3.45;;;2.70;;
25503;SDS011;13410;52.114;5.718;2023-07-20T04:30:42;3.00;;;2.67;;
25503;SDS011;13410;52.114;5.718;2023-07-20T04:33:07;2.70;;;2.50;;
25503;SDS011;13410;52.114;5.718;2023-07-20T04:38:17;3.40;;;2.65;;
25503;SDS011;13410;52.114;5.718;2023-07-20T04:40:44;2.83;;;2.45;;
25503;SDS011;13410;52.114;5.718;2023-07-20T04:43:10;2.83;;;2.30;;
25503;SDS011;13410;52.114;5.718;2023-07-20T04:45:36;2.50;;;2.30;;
25503;SDS011;13410;52.114;5.718;2023-07-20T04:48:01;3.83;;;2.45;;
25503;SDS011;13410;52.114;5.718;2023-07-20T04:50:27;3.03;;;2.38;;
25503;SDS011;13410;52.114;5.718;2023-07-20T04:52:53;2.75;;;2.55;;
25503;SDS011;13410;52.114;5.718;2023-07-20T04:55:18;3.17;;;2.22;;
25503;SDS011;13410;52.114;5.718;2023-07-20T04:57:44;2.88;;;2.67;;
25503;SDS011;13410;52.114;5.718;2023-07-20T05:00:10;3.95;;;2.17;;
25503;SDS011;13410;52.114;5.718;2023-07-20T05:02:39;2.72;;;2.30;;
25503;SDS011;13410;52.114;5.718;2023-07-20T05:05:05;3.67;;;2.30;;
25503;SDS011;13410;52.114;5.718;2023-07-20T05:07:31;2.30;;;2.10;;
25503;SDS011;13410;52.114;5.718;2023-07-20T05:09:57;3.47;;;2.42;;
25503;SDS011;13410;52.114;5.718;2023-07-20T05:12:22;2.67;;;2.33;;
25503;SDS011;13410;52.114;5.718;2023-07-20T05:14:48;2.40;;;2.20;;
25503;SDS011;13410;52.114;5.718;2023-07-20T05:17:14;2.80;;;2.22;;
25503;SDS011;13410;52.114;5.718;2023-07-20T05:19:39;5.20;;;2.40;;
25503;SDS011;13410;52.114;5.718;2023-07-20T05:22:07;2.50;;;2.30;;
25503;SDS011;13410;52.114;5.718;2023-07-20T05:24:33;4.90;;;2.30;;
25503;SDS011;13410;52.114;5.718;2023-07-20T05:27:02;2.30;;;2.10;;
25503;SDS011;13410;52.114;5.718;2023-07-20T05:29:28;3.25;;;1.60;;
25503;SDS011;13410;52.114;5.718;2023-07-20T05:31:54;3.53;;;2.20;;
25503;SDS011;13410;52.114;5.718;2023-07-20T05:34:19;4.47;;;1.98;;
25503;SDS011;13410;52.114;5.718;2023-07-20T05:36:46;2.28;;;1.30;;
25503;SDS011;13410;52.114;5.718;2023-07-20T05:39:11;2.60;;;1.42;;
25503;SDS011;13410;52.114;5.718;2023-07-20T05:41:37;2.22;;;1.25;;
25503;SDS011;13410;52.114;5.718;2023-07-20T05:44:05;3.42;;;1.40;;
25503;SDS011;13410;52.114;5.718;2023-07-20T05:46:31;7.82;;;1.40;;
25503;SDS011;13410;52.114;5.718;2023-07-20T05:48:56;2.92;;;0.80;;
25503;SDS011;13410;52.114;5.718;2023-07-20T05:51:22;2.85;;;0.82;;
25503;SDS011;13410;52.114;5.718;2023-07-20T05:53:47;2.35;;;1.00;;
25503;SDS011;13410;52.114;5.718;2023-07-20T05:56:13;2.05;;;0.88;;
25503;SDS011;13410;52.114;5.718;2023-07-20T05:58:39;2.55;;;1.30;;
25503;SDS011;13410;52.114;5.718;2023-07-20T06:01:04;2.42;;;1.02;;
25503;SDS011;13410;52.114;5.718;2023-07-20T06:03:31;1.42;;;0.70;;
25503;SDS011;13410;52.114;5.718;2023-07-20T06:06:01;2.35;;;0.70;;
25503;SDS011;13410;52.114;5.718;2023-07-20T06:08:28;1.27;;;0.50;;
25503;SDS011;13410;52.114;5.718;2023-07-20T06:10:54;2.25;;;0.90;;
25503;SDS011;13410;52.114;5.718;2023-07-20T06:13:19;1.55;;;0.90;;
25503;SDS011;13410;52.114;5.718;2023-07-20T06:15:45;2.97;;;0.90;;
25503;SDS011;13410;52.114;5.718;2023-07-20T06:18:12;0.85;;;0.77;;
25503;SDS011;13410;52.114;5.718;2023-07-20T06:20:38;2.50;;;1.13;;
25503;SDS011;13410;52.114;5.718;2023-07-20T06:23:04;1.83;;;0.60;;
25503;SDS011;13410;52.114;5.718;2023-07-20T06:25:29;1.35;;;0.80;;
25503;SDS011;13410;52.114;5.718;2023-07-20T06:27:55;1.35;;;0.60;;
25503;SDS011;13410;52.114;5.718;2023-07-20T06:30:21;1.10;;;0.73;;
25503;SDS011;13410;52.114;5.718;2023-07-20T06:32:47;1.48;;;0.80;;
25503;SDS011;13410;52.114;5.718;2023-07-20T06:35:13;1.00;;;0.77;;
25503;SDS011;13410;52.114;5.718;2023-07-20T06:37:39;1.77;;;1.10;;
25503;SDS011;13410;52.114;5.718;2023-07-20T06:40:05;3.75;;;0.88;;
25503;SDS011;13410;52.114;5.718;2023-07-20T06:42:31;2.90;;;0.80;;
25503;SDS011;13410;52.114;5.718;2023-07-20T06:44:57;1.10;;;0.68;;
25503;SDS011;13410;52.114;5.718;2023-07-20T06:47:31;2.60;;;0.90;;
25503;SDS011;13410;52.114;5.718;2023-07-20T06:50:15;3.63;;;1.08;;
25503;SDS011;13410;52.114;5.718;2023-07-20T06:52:41;3.47;;;1.05;;
25503;SDS011;13410;52.114;5.718;2023-07-20T06:55:07;3.05;;;1.08;;
25503;SDS011;13410;52.114;5.718;2023-07-20T06:57:33;2.70;;;1.33;;
25503;SDS011;13410;52.114;5.718;2023-07-20T06:59:58;2.83;;;0.90;;
25503;SDS011;13410;52.114;5.718;2023-07-20T07:02:24;0.85;;;0.82;;
25503;SDS011;13410;52.114;5.718;2023-07-20T07:04:49;1.45;;;1.10;;
25503;SDS011;13410;52.114;5.718;2023-07-20T07:07:15;1.50;;;1.10;;
25503;SDS011;13410;52.114;5.718;2023-07-20T07:09:41;1.52;;;1.00;;
25503;SDS011;13410;52.114;5.718;2023-07-20T07:12:07;1.02;;;0.65;;
25503;SDS011;13410;52.114;5.718;2023-07-20T07:14:33;2.65;;;1.10;;
25503;SDS011;13410;52.114;5.718;2023-07-20T07:16:59;1.92;;;1.02;;
25503;SDS011;13410;52.114;5.718;2023-07-20T07:19:25;1.30;;;1.02;;
25503;SDS011;13410;52.114;5.718;2023-07-20T07:21:51;2.33;;;1.02;;
25503;SDS011;13410;52.114;5.718;2023-07-20T07:24:16;1.25;;;1.00;;
25503;SDS011;13410;52.114;5.718;2023-07-20T07:26:43;2.00;;;1.10;;
25503;SDS011;13410;52.114;5.718;2023-07-20T07:29:09;2.63;;;0.70;;
25503;SDS011;13410;52.114;5.718;2023-07-20T07:31:35;2.40;;;0.70;;
25503;SDS011;13410;52.114;5.718;2023-07-20T07:34:03;3.17;;;0.70;;
25503;SDS011;13410;52.114;5.718;2023-07-20T07:36:30;1.85;;;0.90;;
25503;SDS011;13410;52.114;5.718;2023-07-20T07:38:56;1.27;;;0.80;;
25503;SDS011;13410;52.114;5.718;2023-07-20T07:41:22;1.30;;;0.93;;
25503;SDS011;13410;52.114;5.718;2023-07-20T07:43:48;2.88;;;0.90;;
25503;SDS011;13410;52.114;5.718;2023-07-20T07:46:14;2.80;;;1.10;;
25503;SDS011;13410;52.114;5.718;2023-07-20T07:48:39;4.65;;;0.90;;
25503;SDS011;13410;52.114;5.718;2023-07-20T07:51:05;1.98;;;0.90;;
25503;SDS011;13410;52.114;5.718;2023-07-20T07:53:31;1.17;;;0.90;;
25503;SDS011;13410;52.114;5.718;2023-07-20T07:56:01;1.88;;;1.00;;
25503;SDS011;13410;52.114;5.718;2023-07-20T07:58:28;1.83;;;1.30;;
25503;SDS011;13410;52.114;5.718;2023-07-20T08:00:54;1.60;;;1.10;;
25503;SDS011;13410;52.114;5.718;2023-07-20T08:03:19;1.85;;;1.20;;
25503;SDS011;13410;52.114;5.718;2023-07-20T08:05:46;2.88;;;0.90;;
25503;SDS011;13410;52.114;5.718;2023-07-20T08:08:12;1.88;;;1.00;;
25503;SDS011;13410;52.114;5.718;2023-07-20T08:10:37;1.48;;;1.15;;
25503;SDS011;13410;52.114;5.718;2023-07-20T08:13:03;1.70;;;1.15;;
25503;SDS011;13410;52.114;5.718;2023-07-20T08:15:28;1.42;;;0.90;;
25503;SDS011;13410;52.114;5.718;2023-07-20T08:17:54;1.15;;;0.90;;
25503;SDS011;13410;52.114;5.718;2023-07-20T08:20:20;7.10;;;1.65;;
25503;SDS011;13410;52.114;5.718;2023-07-20T08:22:51;2.33;;;1.73;;
25503;SDS011;13410;52.114;5.718;2023-07-20T08:25:20;1.45;;;1.35;;
25503;SDS011;13410;52.114;5.718;2023-07-20T08:27:46;4.43;;;1.58;;
25503;SDS011;13410;52.114;5.718;2023-07-20T08:30:12;1.63;;;1.20;;
25503;SDS011;13410;52.114;5.718;2023-07-20T08:32:38;3.78;;;1.55;;
25503;SDS011;13410;52.114;5.718;2023-07-20T08:35:05;1.90;;;1.50;;
25503;SDS011;13410;52.114;5.718;2023-07-20T08:37:31;2.38;;;1.30;;
25503;SDS011;13410;52.114;5.718;2023-07-20T08:39:57;1.95;;;1.60;;
25503;SDS011;13410;52.114;5.718;2023-07-20T08:42:22;1.77;;;1.60;;
25503;SDS011;13410;52.114;5.718;2023-07-20T08:44:48;1.70;;;1.23;;
25503;SDS011;13410;52.114;5.718;2023-07-20T08:47:17;2.88;;;1.63;;
25503;SDS011;13410;52.114;5.718;2023-07-20T08:49:47;3.08;;;1.60;;
25503;SDS011;13410;52.114;5.718;2023-07-20T08:52:13;2.92;;;1.42;;
25503;SDS011;13410;52.114;5.718;2023-07-20T08:54:40;4.38;;;1.40;;
25503;SDS011;13410;52.114;5.718;2023-07-20T08:57:06;2.45;;;1.50;;
25503;SDS011;13410;52.114;5.718;2023-07-20T08:59:32;2.63;;;1.30;;
25503;SDS011;13410;52.114;5.718;2023-07-20T09:02:01;0.93;;;0.82;;
25503;SDS011;13410;52.114;5.718;2023-07-20T09:04:29;2.58;;;1.02;;
25503;SDS011;13410;52.114;5.718;2023-07-20T09:06:54;1.27;;;1.00;;
25503;SDS011;13410;52.114;5.718;2023-07-20T09:09:24;2.37;;;1.10;;
25503;SDS011;13410;52.114;5.718;2023-07-20T09:11:50;2.13;;;1.00;;
25503;SDS011;13410;52.114;5.718;2023-07-20T09:14:19;3.05;;;1.30;;
25503;SDS011;13410;52.114;5.718;2023-07-20T09:16:54;1.65;;;1.10;;
25503;SDS011;13410;52.114;5.718;2023-07-20T09:19:20;1.40;;;1.20;;
25503;SDS011;13410;52.114;5.718;2023-07-20T09:21:50;2.80;;;1.10;;
25503;SDS011;13410;52.114;5.718;2023-07-20T09:24:18;1.55;;;1.08;;
25503;SDS011;13410;52.114;5.718;2023-07-20T09:26:45;3.78;;;1.30;;
25503;SDS011;13410;52.114;5.718;2023-07-20T09:29:18;2.03;;;0.90;;
25503;SDS011;13410;52.114;5.718;2023-07-20T09:31:58;1.27;;;0.90;;
25503;SDS011;13410;52.114;5.718;2023-07-20T09:34:30;1.88;;;1.10;;
25503;SDS011;13410;52.114;5.718;2023-07-20T09:36:59;4.10;;;0.73;;
25503;SDS011;13410;52.114;5.718;2023-07-20T09:39:25;3.58;;;1.20;;
25503;SDS011;13410;52.114;5.718;2023-07-20T09:41:54;1.05;;;0.65;;
25503;SDS011;13410;52.114;5.718;2023-07-20T09:44:24;1.58;;;0.60;;
25503;SDS011;13410;52.114;5.718;2023-07-20T09:46:53;1.73;;;0.50;;
25503;SDS011;13410;52.114;5.718;2023-07-20T09:49:19;1.67;;;0.85;;
25503;SDS011;13410;52.114;5.718;2023-07-20T09:51:45;1.92;;;0.70;;
25503;SDS011;13410;52.114;5.718;2023-07-20T09:54:11;2.20;;;0.70;;
25503;SDS011;13410;52.114;5.718;2023-07-20T09:56:40;2.03;;;0.50;;
25503;SDS011;13410;52.114;5.718;2023-07-20T09:59:07;2.28;;;0.77;;
25503;SDS011;13410;52.114;5.718;2023-07-20T10:01:32;1.38;;;0.80;;
25503;SDS011;13410;52.114;5.718;2023-07-20T10:04:01;2.45;;;0.90;;
25503;SDS011;13410;52.114;5.718;2023-07-20T10:06:28;1.98;;;0.63;;
25503;SDS011;13410;52.114;5.718;2023-07-20T10:08:59;1.00;;;0.60;;
25503;SDS011;13410;52.114;5.718;2023-07-20T10:11:30;2.10;;;0.57;;
25503;SDS011;13410;52.114;5.718;2023-07-20T10:13:59;1.80;;;0.75;;
25503;SDS011;13410;52.114;5.718;2023-07-20T10:16:32;2.58;;;0.70;;
25503;SDS011;13410;52.114;5.718;2023-07-20T10:21:32;1.80;;;0.88;;
25503;SDS011;13410;52.114;5.718;2023-07-20T10:24:02;2.53;;;0.70;;
25503;SDS011;13410;52.114;5.718;2023-07-20T10:26:29;3.45;;;0.80;;
25503;SDS011;13410;52.114;5.718;2023-07-20T10:28:55;1.95;;;0.70;;
25503;SDS011;13410;52.114;5.718;2023-07-20T10:31:22;1.38;;;0.60;;
25503;SDS011;13410;52.114;5.718;2023-07-20T10:33:48;2.00;;;0.73;;
25503;SDS011;13410;52.114;5.718;2023-07-20T10:36:15;1.23;;;0.82;;
25503;SDS011;13410;52.114;5.718;2023-07-20T10:38:41;3.53;;;1.30;;
25503;SDS011;13410;52.114;5.718;2023-07-20T10:41:20;2.60;;;1.10;;
25503;SDS011;13410;52.114;5.718;2023-07-20T10:44:03;3.53;;;0.90;;
25503;SDS011;13410;52.114;5.718;2023-07-20T10:49:03;0.70;;;0.60;;
25503;SDS011;13410;52.114;5.718;2023-07-20T10:51:30;0.85;;;0.75;;
25503;SDS011;13410;52.114;5.718;2023-07-20T10:56:41;0.95;;;0.50;;
25503;SDS011;13410;52.114;5.718;2023-07-20T11:02:07;1.05;;;0.70;;
25503;SDS011;13410;52.114;5.718;2023-07-20T11:07:09;1.00;;;0.70;;
25503;SDS011;13410;52.114;5.718;2023-07-20T11:09:35;1.20;;;0.80;;
25503;SDS011;13410;52.114;5.718;2023-07-20T11:14:40;2.20;;;0.80;;
25503;SDS011;13410;52.114;5.718;2023-07-20T11:17:18;2.15;;;0.77;;
25503;SDS011;13410;52.114;5.718;2023-07-20T11:19:57;0.88;;;0.75;;
25503;SDS011;13410;52.114;5.718;2023-07-20T11:22:25;1.05;;;0.55;;
25503;SDS011;13410;52.114;5.718;2023-07-20T11:24:54;1.65;;;0.60;;
25503;SDS011;13410;52.114;5.718;2023-07-20T11:27:21;1.15;;;0.70;;
25503;SDS011;13410;52.114;5.718;2023-07-20T11:29:47;1.33;;;0.70;;
25503;SDS011;13410;52.114;5.718;2023-07-20T11:32:19;1.20;;;0.60;;
25503;SDS011;13410;52.114;5.718;2023-07-20T11:34:48;1.25;;;0.50;;
25503;SDS011;13410;52.114;5.718;2023-07-20T11:37:15;1.55;;;0.60;;
25503;SDS011;13410;52.114;5.718;2023-07-20T11:39:44;1.98;;;0.75;;
25503;SDS011;13410;52.114;5.718;2023-07-20T11:42:11;1.42;;;0.63;;
25503;SDS011;13410;52.114;5.718;2023-07-20T11:44:40;1.58;;;0.80;;
25503;SDS011;13410;52.114;5.718;2023-07-20T11:47:07;1.60;;;0.80;;
25503;SDS011;13410;52.114;5.718;2023-07-20T11:49:34;1.33;;;0.70;;
25503;SDS011;13410;52.114;5.718;2023-07-20T11:52:14;0.82;;;0.70;;
25503;SDS011;13410;52.114;5.718;2023-07-20T11:54:41;2.45;;;0.70;;
25503;SDS011;13410;52.114;5.718;2023-07-20T11:57:17;0.95;;;0.63;;
25503;SDS011;13410;52.114;5.718;2023-07-20T11:59:56;1.80;;;0.70;;
25503;SDS011;13410;52.114;5.718;2023-07-20T12:02:23;1.00;;;0.75;;
25503;SDS011;13410;52.114;5.718;2023-07-20T12:04:51;2.42;;;0.70;;
25503;SDS011;13410;52.114;5.718;2023-07-20T12:07:18;0.75;;;0.70;;
25503;SDS011;13410;52.114;5.718;2023-07-20T12:09:44;4.05;;;0.80;;
25503;SDS011;13410;52.114;5.718;2023-07-20T12:12:10;1.00;;;0.50;;
25503;SDS011;13410;52.114;5.718;2023-07-20T12:14:39;1.05;;;0.60;;
25503;SDS011;13410;52.114;5.718;2023-07-20T12:17:04;2.17;;;0.80;;
25503;SDS011;13410;52.114;5.718;2023-07-20T12:19:37;2.75;;;0.75;;
25503;SDS011;13410;52.114;5.718;2023-07-20T12:22:05;0.93;;;0.68;;
25503;SDS011;13410;52.114;5.718;2023-07-20T12:24:31;2.35;;;0.70;;
25503;SDS011;13410;52.114;5.718;2023-07-20T12:26:57;3.50;;;0.80;;
25503;SDS011;13410;52.114;5.718;2023-07-20T12:29:23;3.03;;;0.73;;
25503;SDS011;13410;52.114;5.718;2023-07-20T12:31:49;0.80;;;0.60;;
25503;SDS011;13410;52.114;5.718;2023-07-20T12:34:14;2.33;;;0.60;;
25503;SDS011;13410;52.114;5.718;2023-07-20T12:36:40;0.90;;;0.60;;
25503;SDS011;13410;52.114;5.718;2023-07-20T12:39:06;0.73;;;0.50;;
25503;SDS011;13410;52.114;5.718;2023-07-20T12:41:31;1.05;;;0.60;;
25503;SDS011;13410;52.114;5.718;2023-07-20T12:43:57;2.60;;;0.65;;
25503;SDS011;13410;52.114;5.718;2023-07-20T12:46:23;0.75;;;0.40;;
25503;SDS011;13410;52.114;5.718;2023-07-20T12:48:49;2.53;;;0.70;;
25503;SDS011;13410;52.114;5.718;2023-07-20T12:51:14;1.33;;;0.70;;
25503;SDS011;13410;52.114;5.718;2023-07-20T12:53:40;0.50;;;0.50;;
25503;SDS011;13410;52.114;5.718;2023-07-20T12:56:05;1.08;;;0.77;;
25503;SDS011;13410;52.114;5.718;2023-07-20T12:58:31;0.68;;;0.57;;
25503;SDS011;13410;52.114;5.718;2023-07-20T13:00:57;0.82;;;0.50;;
25503;SDS011;13410;52.114;5.718;2023-07-20T13:03:23;1.92;;;0.40;;
25503;SDS011;13410;52.114;5.718;2023-07-20T13:05:49;1.45;;;0.50;;
25503;SDS011;13410;52.114;5.718;2023-07-20T13:08:15;1.25;;;0.60;;
25503;SDS011;13410;52.114;5.718;2023-07-20T13:10:40;1.40;;;0.60;;
25503;SDS011;13410;52.114;5.718;2023-07-20T13:13:06;1.90;;;0.80;;
25503;SDS011;13410;52.114;5.718;2023-07-20T13:15:40;0.75;;;0.50;;
25503;SDS011;13410;52.114;5.718;2023-07-20T13:18:07;0.60;;;0.50;;
25503;SDS011;13410;52.114;5.718;2023-07-20T13:20:32;1.77;;;0.55;;
25503;SDS011;13410;52.114;5.718;2023-07-20T13:22:58;2.65;;;0.50;;
25503;SDS011;13410;52.114;5.718;2023-07-20T13:25:24;1.90;;;0.63;;
25503;SDS011;13410;52.114;5.718;2023-07-20T13:27:49;1.80;;;0.65;;
25503;SDS011;13410;52.114;5.718;2023-07-20T13:30:15;0.73;;;0.68;;
25503;SDS011;13410;52.114;5.718;2023-07-20T13:32:44;1.80;;;0.60;;
25503;SDS011;13410;52.114;5.718;2023-07-20T13:35:12;1.17;;;0.50;;
25503;SDS011;13410;52.114;5.718;2023-07-20T13:37:38;1.48;;;0.63;;
25503;SDS011;13410;52.114;5.718;2023-07-20T13:40:04;1.67;;;0.60;;
25503;SDS011;13410;52.114;5.718;2023-07-20T13:42:30;1.45;;;0.60;;
25503;SDS011;13410;52.114;5.718;2023-07-20T13:44:57;0.65;;;0.45;;
25503;SDS011;13410;52.114;5.718;2023-07-20T13:47:22;3.15;;;0.73;;
25503;SDS011;13410;52.114;5.718;2023-07-20T13:49:48;0.65;;;0.50;;
25503;SDS011;13410;52.114;5.718;2023-07-20T13:52:14;1.02;;;0.77;;
25503;SDS011;13410;52.114;5.718;2023-07-20T13:54:39;1.13;;;0.50;;
25503;SDS011;13410;52.114;5.718;2023-07-20T13:57:05;1.77;;;0.70;;
25503;SDS011;13410;52.114;5.718;2023-07-20T13:59:31;2.55;;;0.70;;
25503;SDS011;13410;52.114;5.718;2023-07-20T14:01:56;0.90;;;0.68;;
25503;SDS011;13410;52.114;5.718;2023-07-20T14:04:22;1.65;;;0.70;;
25503;SDS011;13410;52.114;5.718;2023-07-20T14:06:47;1.20;;;0.50;;
25503;SDS011;13410;52.114;5.718;2023-07-20T14:09:13;1.70;;;0.40;;
25503;SDS011;13410;52.114;5.718;2023-07-20T14:11:38;3.97;;;0.68;;
25503;SDS011;13410;52.114;5.718;2023-07-20T14:14:04;2.58;;;0.70;;
25503;SDS011;13410;52.114;5.718;2023-07-20T14:16:30;1.10;;;0.60;;
25503;SDS011;13410;52.114;5.718;2023-07-20T14:18:57;1.60;;;0.90;;
25503;SDS011;13410;52.114;5.718;2023-07-20T14:21:23;0.88;;;0.60;;
25503;SDS011;13410;52.114;5.718;2023-07-20T14:23:50;1.15;;;0.70;;
25503;SDS011;13410;52.114;5.718;2023-07-20T14:26:16;0.85;;;0.60;;
25503;SDS011;13410;52.114;5.718;2023-07-20T14:28:42;0.85;;;0.50;;
25503;SDS011;13410;52.114;5.718;2023-07-20T14:31:09;1.40;;;0.70;;
25503;SDS011;13410;52.114;5.718;2023-07-20T14:33:35;2.03;;;0.60;;
25503;SDS011;13410;52.114;5.718;2023-07-20T14:36:01;2.05;;;0.70;;
25503;SDS011;13410;52.114;5.718;2023-07-20T14:38:27;1.98;;;0.88;;
25503;SDS011;13410;52.114;5.718;2023-07-20T14:40:53;1.02;;;0.60;;
25503;SDS011;13410;52.114;5.718;2023-07-20T14:43:19;4.88;;;0.65;;
25503;SDS011;13410;52.114;5.718;2023-07-20T14:45:45;0.60;;;0.60;;
25503;SDS011;13410;52.114;5.718;2023-07-20T14:48:10;1.10;;;0.60;;
25503;SDS011;13410;52.114;5.718;2023-07-20T14:50:36;2.38;;;0.90;;
25503;SDS011;13410;52.114;5.718;2023-07-20T14:53:02;2.60;;;0.50;;
25503;SDS011;13410;52.114;5.718;2023-07-20T14:55:28;1.08;;;0.80;;
25503;SDS011;13410;52.114;5.718;2023-07-20T14:57:53;2.78;;;0.82;;
25503;SDS011;13410;52.114;5.718;2023-07-20T15:00:19;1.92;;;0.80;;
25503;SDS011;13410;52.114;5.718;2023-07-20T15:02:45;2.85;;;0.77;;
25503;SDS011;13410;52.114;5.718;2023-07-20T15:05:10;1.80;;;0.90;;
25503;SDS011;13410;52.114;5.718;2023-07-20T15:07:36;2.20;;;1.05;;
25503;SDS011;13410;52.114;5.718;2023-07-20T15:10:03;1.50;;;1.00;;
25503;SDS011;13410;52.114;5.718;2023-07-20T15:12:29;1.25;;;1.00;;